createdAt,value
2023-05-31T00:00:39.959Z,10.40
2023-05-31T00:03:12.627Z,8.85
2023-05-31T00:05:45.194Z,7.12
2023-05-31T00:08:18.187Z,6.20
2023-05-31T00:10:50.750Z,6.20
2023-05-31T00:13:23.814Z,7.53
2023-05-31T00:15:57.325Z,6.12
2023-05-31T00:18:30.262Z,5.67
2023-05-31T00:21:02.783Z,6.00
2023-05-31T00:23:36.433Z,8.05
2023-05-31T00:26:08.910Z,7.40
2023-05-31T00:28:42.369Z,7.22
2023-05-31T00:31:14.915Z,6.03
2023-05-31T00:33:48.057Z,5.67
2023-05-31T00:36:20.689Z,6.33
2023-05-31T00:38:53.112Z,6.45
2023-05-31T00:41:26.635Z,5.90
2023-05-31T00:43:59.135Z,5.72
2023-05-31T00:46:35.170Z,7.58
2023-05-31T00:49:07.682Z,8.35
2023-05-31T00:51:40.373Z,7.67
2023-05-31T00:54:13.366Z,6.67
2023-05-31T00:56:46.260Z,8.63
2023-05-31T00:59:18.659Z,6.37
2023-05-31T01:01:51.645Z,6.35
2023-05-31T01:04:24.362Z,6.75
2023-05-31T01:06:58.213Z,6.83
2023-05-31T01:09:32.278Z,13.48
2023-05-31T01:12:24.473Z,9.53
2023-05-31T01:15:19.798Z,7.70
2023-05-31T01:18:24.976Z,7.97
2023-05-31T01:20:59.355Z,5.83
2023-05-31T01:23:58.488Z,8.28
2023-05-31T01:26:49.869Z,8.30
2023-05-31T01:29:27.204Z,11.08
2023-05-31T01:32:01.701Z,7.72
2023-05-31T01:37:08.245Z,7.78
2023-05-31T01:39:41.587Z,11.35
2023-05-31T01:42:14.630Z,17.65
2023-05-31T01:44:49.482Z,20.20
2023-05-31T01:47:21.933Z,20.37
2023-05-31T01:49:54.783Z,24.67
2023-05-31T01:52:27.522Z,27.02
2023-05-31T01:55:00.082Z,22.48
2023-05-31T01:57:36.050Z,24.47
2023-05-31T02:00:12.048Z,29.30
2023-05-31T02:02:46.787Z,25.75
2023-05-31T02:05:19.249Z,21.55
2023-05-31T02:07:54.787Z,24.82
2023-05-31T02:10:27.486Z,24.18
2023-05-31T02:13:00.132Z,22.48
2023-05-31T02:15:32.845Z,25.77
2023-05-31T02:18:05.685Z,25.15
2023-05-31T02:20:38.808Z,24.65
2023-05-31T02:23:12.018Z,21.85
2023-05-31T02:25:52.507Z,22.58
2023-05-31T02:28:25.505Z,25.05
2023-05-31T02:31:02.756Z,25.08
2023-05-31T02:33:36.073Z,21.80
2023-05-31T02:36:09.425Z,24.90
2023-05-31T02:38:42.500Z,21.27
2023-05-31T02:43:48.717Z,21.12
2023-05-31T02:46:21.877Z,23.57
2023-05-31T02:48:54.572Z,22.27
2023-05-31T02:51:27.532Z,21.00
2023-05-31T02:54:02.734Z,19.23
2023-05-31T02:56:37.500Z,16.95
2023-05-31T02:59:14.275Z,23.18
2023-05-31T03:01:48.754Z,17.98
2023-05-31T03:04:24.069Z,10.58
2023-05-31T03:06:57.409Z,13.30
2023-05-31T03:09:30.162Z,9.88
2023-05-31T03:12:03.976Z,10.68
2023-05-31T03:14:37.652Z,7.25
2023-05-31T03:17:11.051Z,7.58
2023-05-31T03:19:43.550Z,7.22
2023-05-31T03:22:16.933Z,10.25
2023-05-31T03:24:49.736Z,8.48
2023-05-31T03:27:22.933Z,9.50
2023-05-31T03:29:57.135Z,12.68
2023-05-31T03:32:29.841Z,8.45
2023-05-31T03:35:02.372Z,8.25
2023-05-31T03:37:35.148Z,5.80
2023-05-31T03:40:10.665Z,11.08
2023-05-31T03:42:43.287Z,8.30
2023-05-31T03:45:16.077Z,7.15
2023-05-31T03:47:49.013Z,12.82
2023-05-31T03:50:21.686Z,8.43
2023-05-31T03:52:54.160Z,8.63
2023-05-31T03:55:26.794Z,7.80
2023-05-31T03:57:59.533Z,11.00
2023-05-31T04:00:32.537Z,11.45
2023-05-31T04:03:05.923Z,10.13
2023-05-31T04:08:12.709Z,6.58
2023-05-31T04:10:46.290Z,9.63
2023-05-31T04:13:19.276Z,9.93
2023-05-31T04:15:53.005Z,5.75
2023-05-31T04:18:25.842Z,5.00
2023-05-31T04:20:58.594Z,9.50
2023-05-31T04:23:32.561Z,10.23
2023-05-31T04:26:05.349Z,7.28
2023-05-31T04:28:39.386Z,10.50
2023-05-31T04:31:13.028Z,6.65
2023-05-31T04:33:46.238Z,6.20
2023-05-31T04:36:20.273Z,16.62
2023-05-31T04:38:54.921Z,4.62
2023-05-31T04:41:29.895Z,5.05
2023-05-31T04:44:02.778Z,6.37
2023-05-31T04:46:38.022Z,8.10
2023-05-31T04:49:11.165Z,8.83
2023-05-31T04:51:43.784Z,9.03
2023-05-31T04:54:16.485Z,8.55
2023-05-31T04:56:49.526Z,11.70
2023-05-31T04:59:22.322Z,10.95
2023-05-31T05:01:55.308Z,7.35
2023-05-31T05:04:29.004Z,6.62
2023-05-31T05:07:01.688Z,8.90
2023-05-31T05:09:34.556Z,5.72
2023-05-31T05:12:09.695Z,11.08
2023-05-31T05:14:44.125Z,5.70
2023-05-31T05:17:16.697Z,5.92
2023-05-31T05:19:49.265Z,13.93
2023-05-31T05:22:21.980Z,6.80
2023-05-31T05:24:54.781Z,8.03
2023-05-31T05:27:29.831Z,7.10
2023-05-31T05:30:02.375Z,7.25
2023-05-31T05:32:36.189Z,5.72
2023-05-31T05:35:09.795Z,4.97
2023-05-31T05:37:42.489Z,4.87
2023-05-31T05:40:15.744Z,6.62
2023-05-31T05:42:50.300Z,8.00
2023-05-31T05:45:23.433Z,5.90
2023-05-31T05:47:57.461Z,4.23
2023-05-31T05:50:30.217Z,5.05
2023-05-31T05:53:04.593Z,4.30
2023-05-31T05:55:39.246Z,5.37
2023-05-31T05:58:12.471Z,4.30
2023-05-31T06:01:03.289Z,4.25
2023-05-31T06:03:36.356Z,5.90
2023-05-31T06:06:09.653Z,4.25
2023-05-31T06:08:42.464Z,5.45
2023-05-31T06:11:17.013Z,8.80
2023-05-31T06:16:23.890Z,4.47
2023-05-31T06:18:56.603Z,3.87
2023-05-31T06:21:29.325Z,7.47
2023-05-31T06:24:07.048Z,4.92
2023-05-31T06:26:40.723Z,3.55
2023-05-31T06:29:13.662Z,4.17
2023-05-31T06:31:55.703Z,5.03
2023-05-31T06:37:02.971Z,8.05
2023-05-31T06:42:08.537Z,4.33
2023-05-31T06:44:55.466Z,8.38
2023-05-31T06:47:21.039Z,8.40
2023-05-31T06:49:58.286Z,9.23
2023-05-31T06:52:45.256Z,6.90
2023-05-31T06:55:37.240Z,8.05
2023-05-31T06:58:10.888Z,3.80
2023-05-31T07:03:18.532Z,7.35
2023-05-31T07:05:51.998Z,5.70
2023-05-31T07:10:59.503Z,5.03
2023-05-31T07:13:33.117Z,6.05
2023-05-31T07:16:06.076Z,11.65
2023-05-31T07:18:39.055Z,4.62
2023-05-31T07:21:11.676Z,3.25
2023-05-31T07:23:44.234Z,7.12
2023-05-31T07:26:19.852Z,5.85
2023-05-31T07:28:55.186Z,4.17
2023-05-31T07:31:28.900Z,6.35
2023-05-31T07:34:01.939Z,4.83
2023-05-31T07:36:35.733Z,3.37
2023-05-31T07:39:10.253Z,5.78
2023-05-31T07:41:44.360Z,7.72
2023-05-31T07:44:17.769Z,3.30
2023-05-31T07:46:50.375Z,6.10
2023-05-31T07:49:23.381Z,3.30
2023-05-31T07:51:56.086Z,5.87
2023-05-31T07:54:29.184Z,3.95
2023-05-31T07:57:02.057Z,10.75
2023-05-31T07:59:35.027Z,5.60
2023-05-31T08:02:08.301Z,3.55
2023-05-31T08:04:40.829Z,6.60
2023-05-31T08:07:13.968Z,8.00
2023-05-31T08:09:48.743Z,17.60
2023-05-31T08:12:24.668Z,7.58
2023-05-31T08:14:57.201Z,3.33
2023-05-31T08:17:29.700Z,3.92
2023-05-31T08:20:02.485Z,7.67
2023-05-31T08:22:36.879Z,3.50
2023-05-31T08:25:14.397Z,3.27
2023-05-31T08:27:47.406Z,4.70
2023-05-31T08:30:19.841Z,6.08
2023-05-31T08:32:54.660Z,7.80
2023-05-31T08:35:27.632Z,10.25
2023-05-31T08:38:00.965Z,3.55
2023-05-31T08:40:33.865Z,4.97
2023-05-31T08:43:19.525Z,3.37
2023-05-31T08:45:53.322Z,5.60
2023-05-31T08:48:36.920Z,6.03
2023-05-31T08:51:09.534Z,5.28
2023-05-31T08:56:16.729Z,7.40
2023-05-31T08:58:52.401Z,4.92
2023-05-31T09:01:25.281Z,3.65
2023-05-31T09:03:57.960Z,4.25
2023-05-31T09:06:31.284Z,5.62
2023-05-31T09:09:04.704Z,3.95
2023-05-31T09:11:42.279Z,3.83
2023-05-31T09:14:15.519Z,3.47
2023-05-31T09:16:49.240Z,3.77
2023-05-31T09:19:21.838Z,7.17
2023-05-31T09:21:55.125Z,3.95
2023-05-31T09:24:27.824Z,3.30
2023-05-31T09:27:02.287Z,3.98
2023-05-31T09:29:34.890Z,2.25
2023-05-31T09:32:12.027Z,4.90
2023-05-31T09:34:44.918Z,5.92
2023-05-31T09:37:25.213Z,5.60
2023-05-31T09:39:58.881Z,4.67
2023-05-31T09:42:31.562Z,2.83
2023-05-31T09:45:04.473Z,7.40
2023-05-31T09:47:39.859Z,3.95
